createdAt,value
2019-05-12T00:01:10.288Z,13.95
2019-05-12T00:03:38.549Z,14.19
2019-05-12T00:06:08.786Z,14.10
2019-05-12T00:08:38.167Z,14.05
2019-05-12T00:11:08.814Z,13.60
2019-05-12T00:13:38.524Z,14.04
2019-05-12T00:16:08.703Z,13.67
2019-05-12T00:18:37.823Z,13.45
2019-05-12T00:21:08.651Z,13.82
2019-05-12T00:23:38.224Z,14.09
2019-05-12T00:26:07.939Z,14.05
2019-05-12T00:28:37.671Z,14.10
2019-05-12T00:31:08.269Z,14.50
2019-05-12T00:33:38.473Z,15.34
2019-05-12T00:36:08.024Z,14.52
2019-05-12T00:38:38.195Z,14.13
2019-05-12T00:41:08.638Z,14.53
2019-05-12T00:43:38.222Z,13.95
2019-05-12T00:46:07.969Z,14.09
2019-05-12T00:48:37.603Z,13.96
2019-05-12T00:51:07.739Z,13.83
2019-05-12T00:53:42.714Z,14.38
2019-05-12T00:56:08.335Z,13.85
2019-05-12T00:58:38.270Z,13.88
2019-05-12T01:01:08.122Z,13.75
2019-05-12T01:03:38.209Z,13.89
2019-05-12T01:06:08.417Z,13.89
2019-05-12T01:08:38.263Z,14.07
2019-05-12T01:11:08.787Z,13.51
2019-05-12T01:13:38.275Z,13.61
2019-05-12T01:16:08.095Z,13.58
2019-05-12T01:18:38.418Z,13.68
2019-05-12T01:21:07.751Z,13.54
2019-05-12T01:23:51.865Z,13.04
2019-05-12T01:26:08.659Z,12.68
2019-05-12T01:28:38.163Z,12.84
2019-05-12T01:31:08.582Z,12.95
2019-05-12T01:33:38.095Z,12.96
2019-05-12T01:36:07.959Z,12.62
2019-05-12T01:38:38.001Z,12.99
2019-05-12T01:41:08.566Z,12.94
2019-05-12T01:43:38.232Z,12.88
2019-05-12T01:46:08.044Z,12.92
2019-05-12T01:48:37.774Z,13.23
2019-05-12T01:51:08.245Z,13.12
2019-05-12T01:53:37.800Z,12.98
2019-05-12T01:56:07.872Z,13.32
2019-05-12T01:58:38.055Z,12.89
2019-05-12T02:01:08.058Z,13.24
2019-05-12T02:03:37.690Z,12.73
2019-05-12T02:06:08.289Z,12.71
2019-05-12T02:08:47.762Z,12.80
2019-05-12T02:11:34.517Z,12.94
2019-05-12T02:14:04.118Z,12.74
2019-05-12T02:16:32.372Z,12.44
2019-05-12T02:19:00.687Z,12.52
2019-05-12T02:21:28.956Z,12.38
2019-05-12T02:23:58.281Z,12.67
2019-05-12T02:26:28.918Z,12.87
2019-05-12T02:28:58.602Z,12.83
2019-05-12T02:31:29.464Z,12.82
2019-05-12T02:33:56.610Z,13.10
2019-05-12T02:36:26.118Z,12.71
2019-05-12T02:38:55.931Z,13.00
2019-05-12T02:41:26.026Z,12.96
2019-05-12T02:43:55.382Z,12.65
2019-05-12T02:46:25.542Z,12.74
2019-05-12T02:48:54.685Z,12.57
2019-05-12T02:51:24.912Z,12.57
2019-05-12T02:53:54.694Z,12.75
2019-05-12T02:56:25.741Z,12.31
2019-05-12T02:58:54.465Z,12.41
2019-05-12T03:01:24.446Z,12.57
2019-05-12T03:03:55.405Z,12.65
2019-05-12T03:06:25.326Z,11.65
2019-05-12T03:08:55.374Z,11.87
2019-05-12T03:11:24.821Z,11.87
2019-05-12T03:13:54.857Z,11.57
2019-05-12T03:16:25.641Z,11.46
2019-05-12T03:18:55.331Z,12.09
2019-05-12T03:21:24.542Z,12.14
2019-05-12T03:23:55.038Z,11.90
2019-05-12T03:26:24.594Z,11.63
2019-05-12T03:28:55.594Z,11.28
2019-05-12T03:31:30.586Z,11.49
2019-05-12T03:33:59.673Z,12.41
2019-05-12T03:36:32.555Z,12.27
2019-05-12T03:38:55.158Z,11.37
2019-05-12T03:41:25.103Z,11.51
2019-05-12T03:43:54.997Z,12.41
2019-05-12T03:46:24.844Z,12.79
2019-05-12T03:48:55.281Z,12.43
2019-05-12T03:51:25.127Z,12.31
2019-05-12T03:53:55.640Z,13.00
2019-05-12T03:56:25.859Z,13.11
2019-05-12T03:58:54.137Z,12.81
2019-05-12T04:01:25.465Z,12.29
2019-05-12T04:03:54.213Z,12.12
2019-05-12T04:06:24.463Z,12.24
2019-05-12T04:08:54.983Z,12.21
2019-05-12T04:11:24.995Z,12.48
2019-05-12T04:13:55.016Z,12.84
2019-05-12T04:16:24.767Z,12.84
2019-05-12T04:18:55.155Z,12.14
2019-05-12T04:21:24.288Z,12.70
2019-05-12T04:23:54.777Z,12.50
2019-05-12T04:26:25.302Z,12.60
2019-05-12T04:28:54.857Z,12.58
2019-05-12T04:31:24.928Z,12.75
2019-05-12T04:33:54.745Z,12.64
2019-05-12T04:36:24.858Z,12.81
2019-05-12T04:38:55.624Z,12.83
2019-05-12T04:41:25.688Z,13.16
2019-05-12T04:43:55.105Z,12.85
2019-05-12T04:46:25.188Z,12.60
2019-05-12T04:48:54.628Z,12.88
2019-05-12T04:51:24.970Z,12.69
2019-05-12T04:53:54.869Z,12.81
2019-05-12T04:56:24.957Z,12.77
2019-05-12T04:58:54.620Z,12.84
2019-05-12T05:01:25.363Z,12.99
2019-05-12T05:03:54.503Z,12.76
2019-05-12T05:06:25.289Z,13.13
2019-05-12T05:08:54.386Z,13.02
2019-05-12T05:11:24.966Z,12.99
2019-05-12T05:13:54.848Z,13.05
2019-05-12T05:16:24.822Z,13.29
2019-05-12T05:18:54.318Z,13.26
2019-05-12T05:21:23.979Z,13.19
2019-05-12T05:23:53.688Z,13.58
2019-05-12T05:26:27.821Z,13.26
2019-05-12T05:28:54.107Z,12.82
2019-05-12T05:31:24.178Z,13.53
2019-05-12T05:33:53.655Z,13.56
2019-05-12T05:36:21.999Z,13.46
2019-05-12T05:38:50.982Z,13.80
2019-05-12T05:41:20.268Z,13.94
2019-05-12T05:43:53.048Z,13.30
2019-05-12T05:46:18.565Z,13.18
2019-05-12T05:48:46.831Z,13.25
2019-05-12T05:51:15.091Z,13.43
2019-05-12T05:53:44.254Z,13.57
2019-05-12T05:56:14.680Z,13.45
2019-05-12T05:58:47.054Z,13.82
2019-05-12T06:01:13.723Z,13.62
2019-05-12T06:03:44.141Z,13.68
2019-05-12T06:06:15.066Z,13.23
2019-05-12T06:08:44.503Z,13.21
2019-05-12T06:11:14.712Z,13.53
2019-05-12T06:13:44.331Z,13.72
2019-05-12T06:16:20.220Z,14.00
2019-05-12T06:18:43.909Z,13.56
2019-05-12T06:21:13.754Z,13.58
2019-05-12T06:23:43.417Z,13.49
2019-05-12T06:26:14.066Z,13.76
2019-05-12T06:28:43.797Z,14.01
2019-05-12T06:31:13.867Z,13.32
2019-05-12T06:33:44.513Z,13.52
2019-05-12T06:36:15.676Z,14.21
2019-05-12T06:38:43.463Z,13.82
2019-05-12T06:41:20.323Z,13.70
2019-05-12T06:43:44.706Z,13.73
2019-05-12T06:46:20.001Z,13.18
2019-05-12T06:48:43.204Z,13.36
2019-05-12T06:51:15.430Z,13.66
2019-05-12T06:53:44.197Z,13.44
2019-05-12T06:56:15.392Z,13.42
2019-05-12T06:58:44.118Z,12.79
2019-05-12T07:01:18.464Z,13.23
2019-05-12T07:03:43.892Z,12.83
2019-05-12T07:06:18.032Z,13.61
2019-05-12T07:08:43.682Z,13.61
2019-05-12T07:11:14.106Z,13.49
2019-05-12T07:13:43.580Z,12.98
2019-05-12T07:16:22.035Z,13.75
2019-05-12T07:18:47.080Z,13.16
2019-05-12T07:21:19.668Z,13.32
2019-05-12T07:23:45.320Z,13.14
2019-05-12T07:26:19.121Z,13.83
2019-05-12T07:28:43.544Z,14.22
2019-05-12T07:31:14.091Z,14.38
2019-05-12T07:33:45.663Z,14.81
2019-05-12T07:36:13.795Z,14.58
2019-05-12T07:38:43.378Z,14.53
2019-05-12T07:41:14.236Z,13.49
2019-05-12T07:43:44.333Z,13.57
2019-05-12T07:46:13.501Z,13.76
2019-05-12T07:48:48.959Z,14.33
2019-05-12T07:51:13.802Z,14.01
2019-05-12T07:53:49.118Z,13.78
2019-05-12T07:56:14.306Z,14.91
2019-05-12T07:58:47.393Z,14.86
2019-05-12T08:01:14.397Z,14.86
2019-05-12T08:03:43.656Z,15.02
2019-05-12T08:06:14.225Z,14.96
2019-05-12T08:08:50.236Z,14.13
2019-05-12T08:11:14.748Z,13.93
2019-05-12T08:13:43.856Z,14.24
2019-05-12T08:16:14.134Z,14.61
2019-05-12T08:18:43.812Z,14.69
2019-05-12T08:21:14.007Z,14.31
2019-05-12T08:23:44.230Z,15.03
2019-05-12T08:26:18.326Z,15.42
2019-05-12T08:28:44.150Z,15.26
2019-05-12T08:31:14.088Z,14.89
2019-05-12T08:33:43.631Z,15.22
2019-05-12T08:36:16.025Z,14.69
2019-05-12T08:38:44.341Z,14.55
2019-05-12T08:41:14.352Z,14.82
2019-05-12T08:43:47.106Z,14.76
2019-05-12T08:46:15.530Z,15.27
2019-05-12T08:48:44.385Z,15.40
2019-05-12T08:51:14.572Z,15.70
2019-05-12T08:53:43.997Z,15.57
2019-05-12T08:56:18.644Z,15.18
2019-05-12T08:58:50.452Z,14.94
2019-05-12T09:01:13.839Z,15.67
2019-05-12T09:03:44.262Z,16.20
2019-05-12T09:06:15.446Z,15.74
2019-05-12T09:08:49.036Z,15.70
2019-05-12T09:11:14.078Z,16.48
2019-05-12T09:13:43.453Z,16.07
2019-05-12T09:16:13.813Z,16.15
2019-05-12T09:18:43.503Z,15.01
2019-05-12T09:21:13.916Z,15.40
2019-05-12T09:23:44.986Z,15.12
2019-05-12T09:26:13.490Z,15.53
2019-05-12T09:28:47.465Z,16.28
2019-05-12T09:31:13.986Z,16.00
2019-05-12T09:33:44.316Z,16.38
2019-05-12T09:36:19.899Z,16.68
2019-05-12T09:38:43.870Z,15.98
2019-05-12T09:41:13.945Z,15.99
2019-05-12T09:43:48.360Z,16.40
2019-05-12T09:46:14.233Z,16.84
2019-05-12T09:48:46.898Z,16.63
2019-05-12T09:51:13.396Z,16.90
2019-05-12T09:53:42.740Z,17.66
2019-05-12T09:56:13.750Z,17.28
2019-05-12T09:58:43.605Z,16.89
2019-05-12T10:01:14.050Z,17.07
2019-05-12T10:03:43.796Z,17.65
2019-05-12T10:06:18.051Z,18.39
2019-05-12T10:08:44.886Z,17.11
2019-05-12T10:11:16.549Z,17.61
2019-05-12T10:13:44.965Z,17.99
2019-05-12T10:16:13.524Z,17.67
2019-05-12T10:18:43.131Z,17.80
2019-05-12T10:21:15.357Z,18.03
2019-05-12T10:23:43.666Z,16.76
2019-05-12T10:26:14.602Z,17.28
2019-05-12T10:28:43.701Z,17.12
2019-05-12T10:31:13.785Z,16.92
2019-05-12T10:33:43.264Z,16.06
2019-05-12T10:36:11.650Z,15.70
2019-05-12T10:38:39.924Z,16.46
2019-05-12T10:41:08.205Z,18.22
2019-05-12T10:43:36.475Z,17.27
2019-05-12T10:46:04.747Z,18.43
2019-05-12T10:48:33.985Z,18.31
2019-05-12T10:51:02.498Z,17.06
2019-05-12T10:53:35.596Z,17.66
2019-05-12T10:56:03.833Z,17.98
2019-05-12T10:58:33.606Z,17.91
2019-05-12T11:01:05.382Z,17.85
2019-05-12T11:03:33.738Z,17.89
2019-05-12T11:06:04.929Z,17.93
2019-05-12T11:08:33.297Z,18.07
2019-05-12T11:11:04.019Z,18.61
2019-05-12T11:13:33.823Z,18.36
2019-05-12T11:16:03.897Z,18.49
2019-05-12T11:18:34.098Z,18.21
2019-05-12T11:21:03.608Z,17.66
2019-05-12T11:23:34.308Z,17.55
2019-05-12T11:26:03.927Z,18.08
2019-05-12T11:28:33.705Z,18.72
2019-05-12T11:31:02.055Z,18.57
2019-05-12T11:33:30.341Z,18.64
2019-05-12T11:35:58.694Z,19.66
2019-05-12T11:38:26.936Z,20.92
2019-05-12T11:40:55.203Z,22.19
2019-05-12T11:43:24.820Z,22.14
2019-05-12T11:45:53.594Z,22.57
2019-05-12T11:48:23.638Z,22.68
2019-05-12T11:50:54.202Z,21.24
2019-05-12T11:53:30.246Z,20.70
2019-05-12T11:55:55.075Z,20.12
2019-05-12T11:58:23.653Z,22.42
2019-05-12T12:00:58.732Z,23.07
2019-05-12T12:03:23.783Z,23.19
2019-05-12T12:05:53.777Z,22.79
2019-05-12T12:08:26.220Z,23.47
2019-05-12T12:10:54.268Z,26.08
2019-05-12T12:13:25.534Z,25.86
2019-05-12T12:15:52.639Z,26.60
2019-05-12T12:18:23.070Z,23.23
2019-05-12T12:20:55.119Z,23.38
2019-05-12T12:23:20.907Z,23.18
2019-05-12T12:25:50.160Z,26.72
2019-05-12T12:28:18.634Z,28.47
2019-05-12T12:30:52.498Z,29.91
2019-05-12T12:33:19.305Z,27.58
2019-05-12T12:35:50.386Z,25.78
2019-05-12T12:38:17.556Z,26.04
2019-05-12T12:40:45.903Z,27.20
2019-05-12T12:43:15.563Z,25.41
2019-05-12T12:45:45.505Z,26.70
2019-05-12T12:48:13.884Z,28.23
2019-05-12T12:50:44.391Z,28.38
2019-05-12T12:53:12.120Z,25.13
2019-05-12T12:55:43.554Z,24.17
2019-05-12T12:58:10.372Z,24.76
2019-05-12T13:00:47.139Z,28.40
2019-05-12T13:03:08.692Z,29.77
2019-05-12T13:05:36.966Z,30.21
2019-05-12T13:08:05.247Z,27.68
2019-05-12T13:10:33.816Z,28.09
2019-05-12T13:13:04.193Z,31.76
2019-05-12T13:15:34.051Z,29.17
2019-05-12T13:18:02.448Z,25.59
2019-05-12T13:20:30.729Z,25.82
2019-05-12T13:22:58.987Z,27.12
2019-05-12T13:25:27.255Z,29.08
2019-05-12T13:27:55.533Z,27.59
2019-05-12T13:30:24.390Z,27.88
2019-05-12T13:32:52.751Z,30.61
2019-05-12T13:35:21.026Z,32.04
2019-05-12T13:37:50.391Z,32.45
2019-05-12T13:40:19.425Z,31.92
2019-05-12T13:42:47.705Z,33.88
2019-05-12T13:45:16.542Z,28.52
2019-05-12T13:47:44.885Z,26.58
2019-05-12T13:50:21.400Z,29.44
2019-05-12T13:52:43.787Z,30.06
2019-05-12T13:55:13.399Z,33.21
2019-05-12T13:57:46.227Z,34.20
2019-05-12T14:00:21.094Z,33.88
2019-05-12T14:02:55.584Z,34.42
2019-05-12T14:05:19.360Z,33.22
2019-05-12T14:07:49.984Z,32.40
2019-05-12T14:10:17.708Z,31.68
2019-05-12T14:12:45.984Z,32.23
2019-05-12T14:15:14.522Z,33.64
2019-05-12T14:17:43.505Z,33.55
2019-05-12T14:20:17.888Z,34.06
2019-05-12T14:22:44.551Z,33.55
2019-05-12T14:25:15.284Z,32.66
2019-05-12T14:27:44.349Z,33.38
2019-05-12T14:30:14.467Z,35.13
2019-05-12T14:32:43.958Z,33.83
2019-05-12T14:35:12.481Z,36.16
2019-05-12T14:37:45.987Z,34.84
2019-05-12T14:40:21.451Z,33.31
2019-05-12T14:42:49.651Z,33.13
2019-05-12T14:45:19.303Z,31.53
2019-05-12T14:47:47.922Z,31.24
2019-05-12T14:50:16.248Z,33.90
2019-05-12T14:52:44.515Z,33.05
2019-05-12T14:55:13.835Z,28.93
2019-05-12T14:57:42.385Z,28.26
2019-05-12T15:00:11.406Z,28.55
2019-05-12T15:02:40.791Z,28.62
2019-05-12T15:05:10.768Z,27.22
2019-05-12T15:07:42.508Z,26.43
2019-05-12T15:10:09.455Z,26.42
2019-05-12T15:12:37.746Z,25.60
2019-05-12T15:15:09.195Z,25.13
2019-05-12T15:17:37.664Z,25.27
2019-05-12T15:20:10.633Z,28.76
2019-05-12T15:22:43.013Z,32.15
2019-05-12T15:25:10.271Z,30.49
2019-05-12T15:27:44.988Z,29.49
2019-05-12T15:30:20.203Z,26.94
2019-05-12T15:32:38.853Z,30.51
2019-05-12T15:35:07.477Z,25.82
2019-05-12T15:37:38.961Z,25.25
2019-05-12T15:40:07.387Z,25.61
2019-05-12T15:42:35.703Z,25.37
2019-05-12T15:45:06.632Z,24.38
2019-05-12T15:47:35.733Z,24.42
2019-05-12T15:50:06.714Z,29.00
2019-05-12T15:52:40.937Z,29.79
2019-05-12T15:55:08.167Z,28.76
2019-05-12T15:57:36.449Z,28.77
2019-05-12T16:00:07.859Z,29.40
2019-05-12T16:02:36.177Z,30.53
2019-05-12T16:05:06.592Z,30.74
2019-05-12T16:07:39.450Z,30.74
2019-05-12T16:10:07.394Z,31.08
2019-05-12T16:12:35.733Z,30.39
2019-05-12T16:15:05.683Z,32.75
2019-05-12T16:17:34.278Z,32.22
2019-05-12T16:20:03.780Z,26.94
2019-05-12T16:22:37.268Z,26.56
2019-05-12T16:25:04.319Z,25.36
2019-05-12T16:27:35.620Z,24.18
2019-05-12T16:30:04.444Z,23.32
2019-05-12T16:32:39.529Z,23.18
2019-05-12T16:35:07.176Z,23.43
2019-05-12T16:37:35.169Z,23.42
2019-05-12T16:40:04.304Z,23.87
2019-05-12T16:42:33.654Z,23.57
2019-05-12T16:45:05.932Z,23.26
2019-05-12T16:47:33.776Z,22.00
2019-05-12T16:50:08.465Z,21.68
2019-05-12T16:52:40.390Z,22.18
2019-05-12T16:55:03.642Z,22.34
2019-05-12T16:57:33.661Z,21.72
2019-05-12T17:00:06.701Z,20.90
2019-05-12T17:02:41.454Z,21.79
2019-05-12T17:05:06.555Z,22.02
2019-05-12T17:07:34.330Z,21.98
2019-05-12T17:10:11.705Z,20.04
2019-05-12T17:12:37.098Z,20.04
2019-05-12T17:15:04.238Z,20.43
2019-05-12T17:17:33.729Z,20.71
2019-05-12T17:20:04.310Z,21.04
2019-05-12T17:22:32.032Z,20.75
2019-05-12T17:25:00.290Z,21.22
2019-05-12T17:27:28.576Z,20.89
2019-05-12T17:29:56.843Z,20.21
2019-05-12T17:32:25.122Z,19.67
2019-05-12T17:34:53.445Z,19.99
2019-05-12T17:37:23.815Z,20.18
2019-05-12T17:39:51.776Z,20.28
2019-05-12T17:42:26.034Z,19.93
2019-05-12T17:44:50.398Z,19.79
2019-05-12T17:47:21.237Z,19.85
2019-05-12T17:49:48.688Z,20.23
2019-05-12T17:52:18.568Z,19.30
2019-05-12T17:54:47.087Z,20.13
2019-05-12T17:57:19.780Z,19.62
2019-05-12T17:59:45.343Z,19.32
2019-05-12T18:02:16.597Z,19.53
2019-05-12T18:04:43.825Z,19.53
2019-05-12T18:07:14.481Z,19.39
2019-05-12T18:09:43.987Z,19.52
2019-05-12T18:12:13.842Z,19.26
2019-05-12T18:14:46.696Z,18.76
2019-05-12T18:17:14.147Z,19.08
2019-05-12T18:19:44.245Z,19.17
2019-05-12T18:22:14.089Z,19.27
2019-05-12T18:24:49.349Z,18.78
2019-05-12T18:27:13.715Z,18.67
2019-05-12T18:29:44.203Z,18.76
2019-05-12T18:32:13.809Z,18.48
2019-05-12T18:34:44.804Z,18.21
2019-05-12T18:37:14.284Z,18.58
2019-05-12T18:39:43.617Z,18.04
2019-05-12T18:42:13.967Z,18.25
2019-05-12T18:44:43.895Z,17.72
2019-05-12T18:47:16.602Z,18.59
2019-05-12T18:49:47.307Z,18.31
2019-05-12T18:52:14.518Z,17.95
2019-05-12T18:54:51.650Z,17.74
2019-05-12T18:57:12.194Z,18.41
2019-05-12T18:59:48.419Z,18.49
2019-05-12T19:02:14.702Z,18.06
2019-05-12T19:04:41.245Z,18.34
2019-05-12T19:07:09.701Z,18.03
2019-05-12T19:09:37.989Z,18.45
2019-05-12T19:12:16.135Z,18.18
2019-05-12T19:14:40.471Z,18.04
2019-05-12T19:17:08.038Z,18.03
2019-05-12T19:19:36.315Z,17.92
2019-05-12T19:22:09.234Z,17.68
2019-05-12T19:24:36.295Z,17.77
2019-05-12T19:27:04.752Z,17.50
2019-05-12T19:29:39.025Z,17.81
2019-05-12T19:32:04.510Z,17.78
2019-05-12T19:34:37.363Z,17.36
2019-05-12T19:37:03.301Z,17.25
2019-05-12T19:39:33.963Z,17.06
2019-05-12T19:42:03.756Z,17.66
2019-05-12T19:44:34.106Z,17.17
2019-05-12T19:47:02.207Z,17.14
2019-05-12T19:49:44.167Z,17.24
2019-05-12T19:52:00.603Z,17.33
2019-05-12T19:54:30.963Z,16.68
2019-05-12T19:56:58.861Z,16.97
2019-05-12T19:59:27.126Z,17.32
2019-05-12T20:01:55.464Z,17.39
2019-05-12T20:04:33.504Z,17.39
2019-05-12T20:06:54.409Z,17.06
2019-05-12T20:09:24.359Z,16.91
2019-05-12T20:11:53.678Z,17.16
2019-05-12T20:14:24.325Z,17.04
2019-05-12T20:16:54.444Z,17.08
2019-05-12T20:19:25.316Z,16.91
2019-05-12T20:21:54.293Z,17.36
2019-05-12T20:24:23.672Z,16.84
2019-05-12T20:26:53.900Z,16.87
2019-05-12T20:29:33.452Z,16.17
2019-05-12T20:31:57.054Z,16.27
2019-05-12T20:34:25.315Z,16.48
2019-05-12T20:36:53.846Z,16.61
2019-05-12T20:39:24.514Z,16.62
2019-05-12T20:41:54.545Z,16.70
2019-05-12T20:44:23.775Z,16.63
2019-05-12T20:46:56.278Z,16.76
2019-05-12T20:49:24.194Z,16.38
2019-05-12T20:52:03.463Z,16.33
2019-05-12T20:54:24.746Z,16.53
2019-05-12T20:57:02.431Z,16.30
2019-05-12T20:59:28.394Z,16.35
2019-05-12T21:01:56.755Z,16.18
2019-05-12T21:04:31.440Z,16.34
2019-05-12T21:06:56.587Z,16.28
2019-05-12T21:09:24.950Z,16.17
2019-05-12T21:11:54.715Z,15.94
2019-05-12T21:14:24.945Z,16.10
2019-05-12T21:16:56.377Z,15.93
2019-05-12T21:19:29.286Z,15.59
2019-05-12T21:21:59.101Z,15.72
2019-05-12T21:24:29.379Z,15.56
2019-05-12T21:26:57.586Z,15.83
2019-05-12T21:29:29.832Z,15.54
2019-05-12T21:31:56.318Z,15.24
2019-05-12T21:34:25.723Z,15.97
2019-05-12T21:36:58.864Z,15.97
2019-05-12T21:39:26.523Z,15.73
2019-05-12T21:41:55.092Z,15.58
2019-05-12T21:44:24.642Z,15.33
2019-05-12T21:47:03.584Z,14.89
2019-05-12T21:49:25.413Z,15.03
2019-05-12T21:51:58.871Z,14.98
2019-05-12T21:54:29.429Z,15.27
2019-05-12T21:56:58.341Z,15.20
2019-05-12T21:59:29.015Z,15.12
2019-05-12T22:01:56.620Z,15.01
2019-05-12T22:04:25.096Z,15.13
2019-05-12T22:06:57.063Z,14.99
2019-05-12T22:09:24.076Z,14.58
2019-05-12T22:11:54.167Z,14.76
2019-05-12T22:14:30.335Z,14.87
2019-05-12T22:17:02.623Z,14.93
2019-05-12T22:19:34.605Z,15.22
2019-05-12T22:22:01.190Z,15.38
2019-05-12T22:24:36.561Z,15.14
2019-05-12T22:27:04.336Z,15.26
2019-05-12T22:29:31.490Z,14.93
2019-05-12T22:32:00.252Z,14.86
2019-05-12T22:34:37.231Z,14.85
2019-05-12T22:36:59.439Z,14.58
2019-05-12T22:39:27.662Z,14.64
2019-05-12T22:41:55.923Z,14.65
2019-05-12T22:44:25.111Z,14.68
2019-05-12T22:46:56.728Z,14.41
2019-05-12T22:49:25.027Z,14.66
2019-05-12T22:52:02.196Z,14.49
2019-05-12T22:54:27.680Z,14.52
2019-05-12T22:56:56.983Z,14.22
2019-05-12T22:59:25.289Z,13.78
2019-05-12T23:01:54.173Z,14.31
2019-05-12T23:04:25.883Z,14.79
2019-05-12T23:06:52.673Z,14.92
2019-05-12T23:09:25.896Z,14.55
2019-05-12T23:11:53.038Z,14.48
2019-05-12T23:14:24.825Z,14.43
2019-05-12T23:16:51.191Z,14.35
2019-05-12T23:19:19.452Z,14.44
2019-05-12T23:21:49.369Z,14.32
2019-05-12T23:24:17.760Z,14.50
2019-05-12T23:26:48.033Z,14.46
2019-05-12T23:29:20.586Z,14.44
2019-05-12T23:31:45.991Z,14.38
2019-05-12T23:34:14.590Z,14.31
2019-05-12T23:36:43.976Z,13.91
2019-05-12T23:39:14.328Z,14.56
2019-05-12T23:41:43.681Z,13.99
2019-05-12T23:44:13.574Z,13.72
2019-05-12T23:46:43.735Z,13.54
2019-05-12T23:49:14.338Z,13.87
2019-05-12T23:51:43.895Z,13.85
2019-05-12T23:54:14.228Z,13.84
2019-05-12T23:56:43.894Z,13.60
2019-05-12T23:59:13.513Z,13.30
